createdAt,value
2022-10-22T00:01:08.670Z,100172.17
2022-10-22T00:03:39.190Z,100171.86
2022-10-22T00:06:07.282Z,100174.08
2022-10-22T00:08:35.206Z,100175.51
2022-10-22T00:11:29.329Z,100176.02
2022-10-22T00:13:58.102Z,100169.90
2022-10-22T00:16:25.957Z,100165.70
2022-10-22T00:18:53.604Z,100160.86
2022-10-22T00:21:21.395Z,100165.23
2022-10-22T00:23:49.183Z,100169.52
2022-10-22T00:26:16.827Z,100167.58
2022-10-22T00:28:44.465Z,100157.95
2022-10-22T00:31:12.166Z,100150.19
2022-10-22T00:33:39.755Z,100139.23
2022-10-22T00:36:08.232Z,100138.75
2022-10-22T00:38:36.211Z,100140.36
2022-10-22T00:41:03.868Z,100133.60
2022-10-22T00:43:31.487Z,100135.73
2022-10-22T00:45:59.111Z,100136.98
2022-10-22T00:48:30.066Z,100140.44
2022-10-22T00:51:07.386Z,100142.00
2022-10-22T00:53:40.056Z,100135.41
2022-10-22T00:56:09.238Z,100130.59
2022-10-22T00:58:41.948Z,100127.67
2022-10-22T01:01:16.428Z,100124.45
2022-10-22T01:03:44.192Z,100126.98
2022-10-22T01:06:18.417Z,100127.85
2022-10-22T01:09:08.057Z,100121.88
2022-10-22T01:12:14.773Z,100116.45
2022-10-22T01:14:54.240Z,100109.93
2022-10-22T01:17:30.018Z,100108.94
2022-10-22T01:20:00.774Z,100101.71
2022-10-22T01:22:54.952Z,100107.08
2022-10-22T01:25:31.133Z,100103.70
2022-10-22T01:28:11.851Z,100097.91
2022-10-22T01:30:41.180Z,100100.97
2022-10-22T01:33:12.676Z,100097.38
2022-10-22T01:35:44.338Z,100098.34
2022-10-22T01:38:22.132Z,100098.08
2022-10-22T01:40:51.441Z,100100.73
2022-10-22T01:43:19.244Z,100099.60
2022-10-22T01:45:54.172Z,100099.23
2022-10-22T01:48:43.315Z,100097.14
2022-10-22T01:51:29.699Z,100095.35
2022-10-22T01:54:59.288Z,100093.44
2022-10-22T01:57:41.351Z,100096.33
2022-10-22T02:00:15.360Z,100087.71
2022-10-22T02:02:51.126Z,100080.73
2022-10-22T02:05:30.247Z,100073.47
2022-10-22T02:08:03.203Z,100083.28
2022-10-22T02:10:31.316Z,100085.75
2022-10-22T02:13:01.402Z,100085.02
2022-10-22T02:15:32.410Z,100077.78
2022-10-22T02:18:01.345Z,100079.15
2022-10-22T02:20:33.000Z,100079.28
2022-10-22T02:23:01.708Z,100076.81
2022-10-22T02:25:34.483Z,100078.31
2022-10-22T02:28:18.346Z,100078.98
2022-10-22T02:30:54.263Z,100078.38
2022-10-22T02:33:28.693Z,100078.95
2022-10-22T02:35:58.273Z,100076.77
2022-10-22T02:38:28.264Z,100079.58
2022-10-22T02:40:57.623Z,100081.63
2022-10-22T02:43:25.624Z,100088.41
2022-10-22T02:45:53.296Z,100085.88
2022-10-22T02:50:53.555Z,100082.73
2022-10-22T02:53:21.275Z,100085.46
2022-10-22T02:55:49.045Z,100086.02
2022-10-22T02:58:16.923Z,100086.88
2022-10-22T03:00:44.664Z,100082.88
2022-10-22T03:03:12.400Z,100084.48
2022-10-22T03:05:40.129Z,100088.30
2022-10-22T03:08:07.950Z,100085.26
2022-10-22T03:10:35.635Z,100081.30
2022-10-22T03:13:03.267Z,100078.80
2022-10-22T03:15:30.872Z,100074.95
2022-10-22T03:17:58.671Z,100072.64
2022-10-22T03:20:26.474Z,100065.16
2022-10-22T03:22:55.146Z,100066.46
2022-10-22T03:25:25.254Z,100070.11
2022-10-22T03:27:56.428Z,100070.92
2022-10-22T03:30:24.010Z,100077.02
2022-10-22T03:32:51.622Z,100079.83
2022-10-22T03:35:19.281Z,100088.43
2022-10-22T03:37:47.052Z,100091.76
2022-10-22T03:40:15.140Z,100091.87
2022-10-22T03:42:43.093Z,100097.86
2022-10-22T03:45:11.216Z,100095.77
2022-10-22T03:47:39.177Z,100093.74
2022-10-22T03:50:07.929Z,100085.08
2022-10-22T03:52:37.692Z,100084.73
2022-10-22T03:55:06.949Z,100082.13
2022-10-22T03:57:34.844Z,100084.52
2022-10-22T04:00:04.946Z,100084.66
2022-10-22T04:02:32.786Z,100081.59
2022-10-22T04:05:00.733Z,100072.98
2022-10-22T04:07:28.574Z,100076.61
2022-10-22T04:09:56.235Z,100077.29
2022-10-22T04:12:23.924Z,100078.66
2022-10-22T04:14:51.714Z,100077.88
2022-10-22T04:17:19.378Z,100065.41
2022-10-22T04:19:47.072Z,100050.59
2022-10-22T04:22:14.683Z,100045.98
2022-10-22T04:24:42.298Z,100042.73
2022-10-22T04:27:09.940Z,100039.27
2022-10-22T04:29:37.606Z,100032.65
2022-10-22T04:32:05.302Z,100029.89
2022-10-22T04:34:33.000Z,100028.42
2022-10-22T04:37:00.615Z,100027.59
2022-10-22T04:39:28.407Z,100027.54
2022-10-22T04:41:56.223Z,100024.06
2022-10-22T04:44:23.939Z,100023.20
2022-10-22T04:46:51.716Z,100028.09
2022-10-22T04:49:19.778Z,100031.77
2022-10-22T04:51:47.372Z,100029.11
2022-10-22T04:54:15.281Z,100031.54
2022-10-22T04:56:42.995Z,100032.27
2022-10-22T04:59:12.745Z,100038.53
2022-10-22T05:01:43.850Z,100038.70
2022-10-22T05:04:14.803Z,100038.05
2022-10-22T05:06:43.242Z,100038.30
2022-10-22T05:09:14.033Z,100038.52
2022-10-22T05:11:46.156Z,100036.13
2022-10-22T05:14:17.178Z,100039.38
2022-10-22T05:16:48.259Z,100044.14
2022-10-22T05:19:25.958Z,100042.38
2022-10-22T05:21:55.759Z,100042.63
2022-10-22T05:24:23.713Z,100042.70
2022-10-22T05:26:53.257Z,100037.73
2022-10-22T05:29:21.586Z,100040.24
2022-10-22T05:31:49.240Z,100037.23
2022-10-22T05:34:17.492Z,100032.75
2022-10-22T05:36:45.606Z,100037.48
2022-10-22T05:39:13.362Z,100034.55
2022-10-22T05:41:42.495Z,100029.71
2022-10-22T05:44:11.917Z,100035.80
2022-10-22T05:46:40.015Z,100044.49
2022-10-22T05:49:07.713Z,100050.96
2022-10-22T05:51:36.764Z,100047.29
2022-10-22T05:54:07.534Z,100039.30
2022-10-22T05:56:37.003Z,100035.84
2022-10-22T05:59:04.819Z,100037.29
2022-10-22T06:01:35.458Z,100042.39
2022-10-22T06:04:06.512Z,100047.81
2022-10-22T06:06:35.723Z,100054.48
2022-10-22T06:09:23.808Z,100057.42
2022-10-22T06:11:51.938Z,100047.13
2022-10-22T06:14:20.573Z,100056.54
2022-10-22T06:16:49.623Z,100065.91
2022-10-22T06:19:20.328Z,100061.50
2022-10-22T06:21:48.651Z,100063.16
2022-10-22T06:24:16.592Z,100071.40
2022-10-22T06:26:44.772Z,100063.14
2022-10-22T06:29:12.420Z,100055.91
2022-10-22T06:31:40.039Z,100058.45
2022-10-22T06:34:12.703Z,100069.48
2022-10-22T06:36:42.807Z,100068.39
2022-10-22T06:39:15.989Z,100059.76
2022-10-22T06:41:43.753Z,100068.05
2022-10-22T06:44:19.299Z,100066.98
2022-10-22T06:46:49.589Z,100072.14
2022-10-22T06:49:17.506Z,100079.39
2022-10-22T06:51:45.657Z,100077.69
2022-10-22T06:54:13.315Z,100080.26
2022-10-22T06:56:41.044Z,100076.30
2022-10-22T06:59:08.759Z,100076.85
2022-10-22T07:01:36.992Z,100082.26
2022-10-22T07:04:05.120Z,100097.05
2022-10-22T07:06:32.883Z,100112.53
2022-10-22T07:09:00.761Z,100120.09
2022-10-22T07:11:31.341Z,100126.51
2022-10-22T07:14:01.062Z,100125.69
2022-10-22T07:16:31.264Z,100117.27
2022-10-22T07:19:01.508Z,100108.58
2022-10-22T07:21:30.525Z,100104.95
2022-10-22T07:23:59.236Z,100101.05
2022-10-22T07:26:30.616Z,100099.41
2022-10-22T07:29:02.987Z,100093.43
2022-10-22T07:31:31.439Z,100083.52
2022-10-22T07:33:59.071Z,100078.77
2022-10-22T07:36:27.004Z,100083.64
2022-10-22T07:38:58.490Z,100081.48
2022-10-22T07:41:27.874Z,100085.16
2022-10-22T07:43:55.871Z,100095.23
2022-10-22T07:46:24.674Z,100104.53
2022-10-22T07:48:52.776Z,100112.60
2022-10-22T07:51:20.495Z,100111.30
2022-10-22T07:53:48.314Z,100119.02
2022-10-22T07:56:16.227Z,100117.86
2022-10-22T07:58:44.885Z,100115.20
2022-10-22T08:01:12.650Z,100113.34
2022-10-22T08:03:40.361Z,100117.88
2022-10-22T08:06:09.973Z,100121.08
2022-10-22T08:08:37.694Z,100125.29
2022-10-22T08:11:05.710Z,100128.70
2022-10-22T08:13:33.333Z,100132.08
2022-10-22T08:16:01.567Z,100130.66
2022-10-22T08:18:29.603Z,100133.64
2022-10-22T08:20:57.544Z,100133.06
2022-10-22T08:23:27.486Z,100134.54
2022-10-22T08:25:57.608Z,100131.19
2022-10-22T08:28:26.037Z,100130.45
2022-10-22T08:30:53.697Z,100129.64
2022-10-22T08:33:21.647Z,100122.45
2022-10-22T08:35:51.449Z,100126.23
2022-10-22T08:38:19.905Z,100123.05
2022-10-22T08:40:53.021Z,100120.80
2022-10-22T08:43:39.537Z,100119.01
2022-10-22T08:46:08.361Z,100125.56
2022-10-22T08:48:56.227Z,100121.30
2022-10-22T08:51:27.425Z,100123.88
2022-10-22T08:54:17.148Z,100130.71
2022-10-22T08:56:51.145Z,100136.02
2022-10-22T08:59:26.141Z,100137.10
2022-10-22T09:01:54.776Z,100137.92
2022-10-22T09:04:30.911Z,100137.83
2022-10-22T09:07:00.077Z,100135.05
2022-10-22T09:09:35.249Z,100132.18
2022-10-22T09:12:07.211Z,100124.66
2022-10-22T09:14:35.087Z,100131.56
2022-10-22T09:17:03.125Z,100136.76
2022-10-22T09:19:49.708Z,100139.49
2022-10-22T09:22:51.020Z,100139.57
2022-10-22T09:25:25.857Z,100134.76
2022-10-22T09:27:58.324Z,100142.16
2022-10-22T09:30:33.498Z,100132.77
2022-10-22T09:33:01.340Z,100127.41
2022-10-22T09:35:34.496Z,100126.35
2022-10-22T09:38:08.481Z,100127.50
2022-10-22T09:40:57.498Z,100119.52
2022-10-22T09:43:25.503Z,100117.95
2022-10-22T09:46:17.804Z,100117.54
2022-10-22T09:49:11.901Z,100116.19
2022-10-22T09:51:51.970Z,100122.17
2022-10-22T09:54:24.568Z,100122.45
2022-10-22T09:56:57.201Z,100121.23
2022-10-22T09:59:28.937Z,100123.75
2022-10-22T10:02:13.748Z,100123.21
2022-10-22T10:04:51.017Z,100125.70
2022-10-22T10:07:21.380Z,100129.36
2022-10-22T10:09:49.825Z,100127.52
2022-10-22T10:12:29.543Z,100124.17
2022-10-22T10:15:13.593Z,100126.64
2022-10-22T10:18:00.490Z,100135.44
2022-10-22T10:20:31.166Z,100142.69
2022-10-22T10:23:07.605Z,100144.84
2022-10-22T10:25:37.849Z,100144.77
2022-10-22T10:28:33.939Z,100144.11
2022-10-22T10:31:27.712Z,100143.57
2022-10-22T10:34:13.114Z,100136.75
2022-10-22T10:37:01.467Z,100133.77
2022-10-22T10:39:38.196Z,100138.42
2022-10-22T10:42:11.990Z,100146.87
2022-10-22T10:45:17.233Z,100153.75
2022-10-22T10:48:40.533Z,100159.38
2022-10-22T10:51:40.720Z,100163.63
2022-10-22T10:54:27.826Z,100164.02
2022-10-22T10:57:07.991Z,100161.40
2022-10-22T10:59:41.979Z,100157.22
2022-10-22T11:02:34.554Z,100154.21
2022-10-22T11:05:14.174Z,100148.72
2022-10-22T11:07:49.917Z,100142.33
2022-10-22T11:10:30.353Z,100133.39
2022-10-22T11:13:06.939Z,100121.31
2022-10-22T11:15:37.514Z,100115.78
2022-10-22T11:18:13.930Z,100116.75
2022-10-22T11:20:49.279Z,100120.24
2022-10-22T11:23:34.011Z,100117.23
2022-10-22T11:26:02.917Z,100115.33
2022-10-22T11:28:59.086Z,100122.59
2022-10-22T11:31:27.757Z,100123.42
2022-10-22T11:34:33.234Z,100122.20
2022-10-22T11:37:03.152Z,100122.08
2022-10-22T11:39:49.016Z,100121.19
2022-10-22T11:42:22.810Z,100122.23
2022-10-22T11:45:06.253Z,100117.99
2022-10-22T11:47:51.741Z,100118.77
2022-10-22T11:50:25.438Z,100116.55
2022-10-22T11:53:02.625Z,100107.11
2022-10-22T11:55:55.462Z,100108.03
2022-10-22T11:58:27.392Z,100108.70
2022-10-22T12:01:18.474Z,100103.19
2022-10-22T12:03:50.741Z,100095.16
2022-10-22T12:06:29.180Z,100097.92
2022-10-22T12:09:01.534Z,100094.37
2022-10-22T12:11:29.277Z,100094.43
2022-10-22T12:14:40.687Z,100097.22
2022-10-22T12:17:14.415Z,100095.31
2022-10-22T12:19:49.461Z,100097.41
2022-10-22T12:22:21.477Z,100098.32
2022-10-22T12:24:51.493Z,100100.80
2022-10-22T12:27:24.778Z,100104.19
2022-10-22T12:30:00.993Z,100104.47
2022-10-22T12:32:37.637Z,100103.88
2022-10-22T12:35:20.509Z,100098.44
2022-10-22T12:37:53.085Z,100098.87
2022-10-22T12:40:47.687Z,100095.93
2022-10-22T12:43:25.605Z,100093.91
2022-10-22T12:45:54.595Z,100091.31
2022-10-22T12:48:37.370Z,100081.92
2022-10-22T12:51:08.237Z,100085.95
2022-10-22T12:53:39.306Z,100086.86
2022-10-22T12:56:12.337Z,100091.16
2022-10-22T12:58:46.946Z,100092.95
2022-10-22T13:01:17.345Z,100100.98
2022-10-22T13:03:50.419Z,100110.19
2022-10-22T13:06:22.397Z,100108.52
2022-10-22T13:09:00.333Z,100102.50
2022-10-22T13:11:33.873Z,100107.77
2022-10-22T13:14:04.089Z,100113.05
2022-10-22T13:16:32.260Z,100113.13
2022-10-22T13:18:59.977Z,100115.47
2022-10-22T13:21:48.800Z,100110.86
2022-10-22T13:24:22.198Z,100103.12
2022-10-22T13:26:53.099Z,100103.12
2022-10-22T13:29:23.449Z,100104.04
2022-10-22T13:31:53.442Z,100107.07
2022-10-22T13:34:24.903Z,100105.48
2022-10-22T13:36:52.677Z,100106.73
2022-10-22T13:39:22.981Z,100105.06
2022-10-22T13:41:51.761Z,100108.45
2022-10-22T13:44:19.938Z,100103.87
2022-10-22T13:46:48.454Z,100088.19
2022-10-22T13:49:19.291Z,100086.59
2022-10-22T13:51:47.622Z,100083.88
2022-10-22T13:54:25.110Z,100087.23
2022-10-22T13:56:53.725Z,100088.70
2022-10-22T13:59:23.779Z,100086.13
2022-10-22T14:01:52.491Z,100083.27
2022-10-22T14:04:20.285Z,100079.08
2022-10-22T14:06:47.988Z,100074.94
2022-10-22T14:09:16.480Z,100074.27
2022-10-22T14:11:44.342Z,100070.93
2022-10-22T14:14:14.294Z,100073.13
2022-10-22T14:16:42.096Z,100067.96
2022-10-22T14:19:16.443Z,100066.59
2022-10-22T14:21:44.159Z,100069.85
2022-10-22T14:24:13.259Z,100072.33
2022-10-22T14:26:41.811Z,100074.04
2022-10-22T14:29:10.768Z,100075.90
2022-10-22T14:31:42.181Z,100072.58
2022-10-22T14:34:15.304Z,100074.73
2022-10-22T14:36:44.131Z,100077.84
2022-10-22T14:39:12.953Z,100079.07
2022-10-22T14:41:41.274Z,100075.17
2022-10-22T14:44:13.949Z,100071.95
2022-10-22T14:46:44.164Z,100071.10
2022-10-22T14:49:13.153Z,100073.77
2022-10-22T14:51:41.224Z,100075.51
2022-10-22T14:54:08.939Z,100082.89
2022-10-22T14:59:10.482Z,100086.33
2022-10-22T15:01:39.346Z,100085.77
2022-10-22T15:04:06.965Z,100086.77
2022-10-22T15:06:35.560Z,100089.01
2022-10-22T15:09:03.677Z,100088.69
2022-10-22T15:11:31.332Z,100091.70
2022-10-22T15:13:59.034Z,100090.36
2022-10-22T15:16:26.743Z,100088.94
2022-10-22T15:18:54.646Z,100088.73
2022-10-22T15:21:23.090Z,100090.00
2022-10-22T15:23:50.846Z,100098.16
2022-10-22T15:26:19.156Z,100099.30
2022-10-22T15:28:46.964Z,100102.59
2022-10-22T15:31:14.986Z,100105.79
2022-10-22T15:33:43.763Z,100101.81
2022-10-22T15:36:15.205Z,100097.90
2022-10-22T15:38:45.139Z,100097.23
2022-10-22T15:41:13.481Z,100095.95
2022-10-22T15:43:41.324Z,100094.71
2022-10-22T15:46:10.512Z,100100.41
2022-10-22T15:48:38.543Z,100100.48
2022-10-22T15:51:14.690Z,100098.55
2022-10-22T15:53:43.191Z,100101.95
2022-10-22T15:56:14.424Z,100102.05
2022-10-22T15:58:42.190Z,100105.89
2022-10-22T16:01:13.080Z,100109.26
2022-10-22T16:03:41.439Z,100112.97
2022-10-22T16:06:09.799Z,100114.10
2022-10-22T16:08:38.332Z,100117.23
2022-10-22T16:11:06.131Z,100116.63
2022-10-22T16:13:35.991Z,100119.61
2022-10-22T16:16:08.046Z,100121.12
2022-10-22T16:18:35.773Z,100120.34
2022-10-22T16:21:04.193Z,100121.93
2022-10-22T16:23:31.889Z,100121.05
2022-10-22T16:26:02.569Z,100125.70
2022-10-22T16:28:30.424Z,100129.05
2022-10-22T16:31:06.196Z,100127.36
2022-10-22T16:33:41.464Z,100128.49
2022-10-22T16:36:14.690Z,100134.42
2022-10-22T16:38:42.624Z,100134.81
2022-10-22T16:41:15.645Z,100129.99
2022-10-22T16:43:47.002Z,100129.70
2022-10-22T16:46:20.393Z,100133.95
2022-10-22T16:48:50.491Z,100132.21
2022-10-22T16:51:21.874Z,100136.48
2022-10-22T16:53:52.345Z,100138.02
2022-10-22T16:56:20.647Z,100138.33
2022-10-22T16:58:51.128Z,100140.11
2022-10-22T17:01:21.515Z,100136.17
2022-10-22T17:03:49.251Z,100141.94
2022-10-22T17:06:16.884Z,100139.27
2022-10-22T17:08:44.638Z,100140.27
2022-10-22T17:11:17.913Z,100137.34
2022-10-22T17:13:49.077Z,100139.49
2022-10-22T17:16:20.278Z,100145.48
2022-10-22T17:18:48.293Z,100142.19
2022-10-22T17:21:16.199Z,100146.24
2022-10-22T17:23:44.289Z,100146.54
2022-10-22T17:26:22.785Z,100145.94
2022-10-22T17:28:50.743Z,100146.77
2022-10-22T17:31:27.068Z,100147.96
2022-10-22T17:33:57.116Z,100147.84
2022-10-22T17:36:27.515Z,100152.41
2022-10-22T17:38:59.194Z,100153.05
2022-10-22T17:41:29.868Z,100154.41
2022-10-22T17:44:01.359Z,100152.19
2022-10-22T17:46:31.314Z,100149.22
2022-10-22T17:49:04.835Z,100149.77
2022-10-22T17:51:33.034Z,100148.02
2022-10-22T17:54:02.435Z,100149.27
2022-10-22T17:56:32.354Z,100154.81
2022-10-22T17:59:00.133Z,100152.63
2022-10-22T18:01:33.643Z,100154.84
2022-10-22T18:04:07.806Z,100157.42
2022-10-22T18:06:36.085Z,100156.02
2022-10-22T18:09:08.020Z,100158.69
2022-10-22T18:11:37.317Z,100154.29
2022-10-22T18:14:05.110Z,100157.41
2022-10-22T18:16:33.156Z,100155.70
2022-10-22T18:19:00.933Z,100153.34
2022-10-22T18:21:30.453Z,100150.48
2022-10-22T18:23:59.655Z,100150.63
2022-10-22T18:26:27.468Z,100153.89
2022-10-22T18:28:57.115Z,100151.36
2022-10-22T18:31:26.513Z,100152.54
2022-10-22T18:36:29.166Z,100155.83
2022-10-22T18:38:59.402Z,100156.47
2022-10-22T18:41:29.540Z,100154.71
2022-10-22T18:44:00.040Z,100153.41
2022-10-22T18:46:29.639Z,100156.00
2022-10-22T18:48:58.733Z,100157.81
2022-10-22T18:51:34.513Z,100155.96
2022-10-22T18:54:21.639Z,100160.27
2022-10-22T18:56:50.784Z,100157.80
2022-10-22T18:59:21.398Z,100160.08
2022-10-22T19:01:51.385Z,100160.16
2022-10-22T19:04:19.282Z,100163.21
2022-10-22T19:06:47.008Z,100164.70
2022-10-22T19:09:15.543Z,100165.52
2022-10-22T19:11:46.353Z,100166.95
2022-10-22T19:14:14.996Z,100170.64
2022-10-22T19:16:42.857Z,100173.59
2022-10-22T19:19:11.281Z,100172.61
2022-10-22T19:21:38.931Z,100173.33
2022-10-22T19:24:06.892Z,100177.79
2022-10-22T19:26:34.761Z,100180.66
2022-10-22T19:29:02.929Z,100183.98
2022-10-22T19:31:31.283Z,100185.94
2022-10-22T19:34:01.288Z,100188.05
2022-10-22T19:36:32.535Z,100191.37
2022-10-22T19:39:00.917Z,100194.95
2022-10-22T19:41:30.578Z,100196.31
2022-10-22T19:43:59.761Z,100196.67
2022-10-22T19:46:29.674Z,100197.30
2022-10-22T19:48:57.501Z,100202.00
2022-10-22T19:51:29.766Z,100206.36
2022-10-22T19:53:59.831Z,100206.73
2022-10-22T19:56:28.778Z,100211.85
2022-10-22T19:58:57.027Z,100212.10
2022-10-22T20:01:25.877Z,100213.92
2022-10-22T20:03:53.964Z,100217.42
2022-10-22T20:06:21.977Z,100220.41
2022-10-22T20:08:52.384Z,100228.60
2022-10-22T20:11:27.412Z,100230.77
2022-10-22T20:13:56.614Z,100234.70
2022-10-22T20:16:28.584Z,100237.02
2022-10-22T20:19:00.951Z,100245.14
2022-10-22T20:21:28.789Z,100250.05
2022-10-22T20:23:57.574Z,100250.63
2022-10-22T20:26:28.179Z,100255.90
2022-10-22T20:28:57.183Z,100254.34
2022-10-22T20:31:28.584Z,100256.55
2022-10-22T20:33:58.926Z,100252.02
2022-10-22T20:36:27.715Z,100252.23
2022-10-22T20:39:00.269Z,100251.66
2022-10-22T20:41:29.353Z,100248.55
2022-10-22T20:43:57.510Z,100251.59
2022-10-22T20:46:30.877Z,100249.16
2022-10-22T20:49:00.951Z,100255.52
2022-10-22T20:51:28.673Z,100256.34
2022-10-22T20:53:57.063Z,100256.42
2022-10-22T20:56:24.799Z,100262.41
2022-10-22T20:59:03.874Z,100261.15
2022-10-22T21:01:52.328Z,100259.63
2022-10-22T21:04:21.760Z,100263.24
2022-10-22T21:06:50.475Z,100265.85
2022-10-22T21:09:18.214Z,100264.47
2022-10-22T21:11:47.069Z,100267.61
2022-10-22T21:14:16.976Z,100263.78
2022-10-22T21:16:49.233Z,100265.27
2022-10-22T21:19:21.829Z,100268.03
2022-10-22T21:21:49.787Z,100266.14
2022-10-22T21:24:17.501Z,100265.95
2022-10-22T21:26:45.213Z,100271.41
2022-10-22T21:29:16.072Z,100271.93
2022-10-22T21:31:43.888Z,100271.23
2022-10-22T21:34:17.149Z,100272.15
2022-10-22T21:36:44.995Z,100270.92
2022-10-22T21:39:15.353Z,100274.64
2022-10-22T21:41:42.941Z,100271.91
2022-10-22T21:44:10.582Z,100274.82
2022-10-22T21:46:38.362Z,100275.02
2022-10-22T21:49:06.118Z,100274.93
2022-10-22T21:51:35.807Z,100278.91
2022-10-22T21:54:04.142Z,100281.16
2022-10-22T21:56:34.550Z,100283.99
2022-10-22T21:59:04.265Z,100284.48
2022-10-22T22:01:32.080Z,100293.49
2022-10-22T22:03:59.901Z,100291.48
2022-10-22T22:06:32.060Z,100295.22
2022-10-22T22:09:03.209Z,100297.33
2022-10-22T22:11:31.134Z,100295.23
2022-10-22T22:13:59.554Z,100296.45
2022-10-22T22:16:30.715Z,100298.52
2022-10-22T22:19:00.242Z,100298.67
2022-10-22T22:21:28.105Z,100298.88
2022-10-22T22:23:57.283Z,100304.33
2022-10-22T22:26:29.614Z,100305.45
2022-10-22T22:28:59.407Z,100305.77
2022-10-22T22:31:33.986Z,100313.30
2022-10-22T22:34:07.814Z,100315.73
2022-10-22T22:36:38.624Z,100315.98
2022-10-22T22:39:08.378Z,100325.06
2022-10-22T22:41:36.042Z,100326.45
2022-10-22T22:44:03.984Z,100325.54
2022-10-22T22:46:31.829Z,100324.65
2022-10-22T22:48:59.728Z,100329.98
2022-10-22T22:51:27.629Z,100331.09
2022-10-22T22:53:57.636Z,100334.60
2022-10-22T22:56:27.863Z,100337.02
2022-10-22T22:58:56.480Z,100337.43
2022-10-22T23:01:30.710Z,100335.79
2022-10-22T23:04:07.071Z,100340.42
2022-10-22T23:06:38.993Z,100343.23
2022-10-22T23:09:09.495Z,100344.11
2022-10-22T23:11:37.466Z,100340.55
2022-10-22T23:14:07.271Z,100343.79
2022-10-22T23:16:37.296Z,100342.44
2022-10-22T23:19:05.803Z,100344.50
2022-10-22T23:21:39.295Z,100345.39
2022-10-22T23:24:11.435Z,100346.54
2022-10-22T23:26:42.690Z,100353.50
2022-10-22T23:29:16.324Z,100353.46
2022-10-22T23:31:45.057Z,100351.13
2022-10-22T23:34:17.127Z,100349.98
2022-10-22T23:36:45.492Z,100353.98
2022-10-22T23:39:17.008Z,100355.27
2022-10-22T23:41:45.215Z,100355.88
2022-10-22T23:44:13.438Z,100357.06
2022-10-22T23:46:41.069Z,100356.30
2022-10-22T23:49:09.611Z,100354.57
2022-10-22T23:51:38.260Z,100360.10
2022-10-22T23:54:08.711Z,100363.22
2022-10-22T23:56:36.709Z,100361.45
2022-10-22T23:59:04.930Z,100362.89
